sensor_id;sensor_type;location;lat;lon;timestamp;temperature;humidity
25933;DHT22;13731;51.166;4.474;2023-08-12T00:01:36;21.90;99.90
25933;DHT22;13731;51.166;4.474;2023-08-12T00:04:02;21.90;1.00
25933;DHT22;13731;51.166;4.474;2023-08-12T00:06:28;21.90;1.00
25933;DHT22;13731;51.166;4.474;2023-08-12T00:08:54;21.80;1.00
25933;DHT22;13731;51.166;4.474;2023-08-12T00:11:19;21.80;1.00
25933;DHT22;13731;51.166;4.474;2023-08-12T00:13:45;21.80;7.50
25933;DHT22;13731;51.166;4.474;2023-08-12T00:16:11;21.70;99.90
25933;DHT22;13731;51.166;4.474;2023-08-12T00:18:36;21.60;99.90
25933;DHT22;13731;51.166;4.474;2023-08-12T00:21:09;21.50;1.00
25933;DHT22;13731;51.166;4.474;2023-08-12T00:23:40;21.40;99.90
25933;DHT22;13731;51.166;4.474;2023-08-12T00:26:07;21.30;99.90
25933;DHT22;13731;51.166;4.474;2023-08-12T00:28:33;21.30;1.00
25933;DHT22;13731;51.166;4.474;2023-08-12T00:30:59;21.20;1.00
25933;DHT22;13731;51.166;4.474;2023-08-12T00:33:25;21.20;99.90
25933;DHT22;13731;51.166;4.474;2023-08-12T00:35:51;21.10;1.00
25933;DHT22;13731;51.166;4.474;2023-08-12T00:38:17;21.10;1.00
25933;DHT22;13731;51.166;4.474;2023-08-12T00:40:43;21.10;99.90
25933;DHT22;13731;51.166;4.474;2023-08-12T00:43:09;21.20;1.00
25933;DHT22;13731;51.166;4.474;2023-08-12T00:45:35;21.10;1.00
25933;DHT22;13731;51.166;4.474;2023-08-12T00:48:01;21.10;1.00
25933;DHT22;13731;51.166;4.474;2023-08-12T00:50:28;21.20;1.00
25933;DHT22;13731;51.166;4.474;2023-08-12T00:52:55;21.10;1.00
25933;DHT22;13731;51.166;4.474;2023-08-12T00:55:22;21.10;1.00
25933;DHT22;13731;51.166;4.474;2023-08-12T00:57:48;21.00;1.00
25933;DHT22;13731;51.166;4.474;2023-08-12T01:00:14;21.00;1.00
25933;DHT22;13731;51.166;4.474;2023-08-12T01:02:42;21.00;1.00
25933;DHT22;13731;51.166;4.474;2023-08-12T01:05:10;21.10;1.00
25933;DHT22;13731;51.166;4.474;2023-08-12T01:07:36;21.20;1.00
25933;DHT22;13731;51.166;4.474;2023-08-12T01:10:02;21.10;1.00
25933;DHT22;13731;51.166;4.474;2023-08-12T01:12:36;21.20;1.00
25933;DHT22;13731;51.166;4.474;2023-08-12T01:15:10;21.20;99.90
25933;DHT22;13731;51.166;4.474;2023-08-12T01:17:37;21.20;99.90
25933;DHT22;13731;51.166;4.474;2023-08-12T01:20:04;21.10;99.90
25933;DHT22;13731;51.166;4.474;2023-08-12T01:22:38;21.10;99.90
25933;DHT22;13731;51.166;4.474;2023-08-12T01:25:07;21.10;99.90
25933;DHT22;13731;51.166;4.474;2023-08-12T01:27:35;21.00;99.90
25933;DHT22;13731;51.166;4.474;2023-08-12T01:30:00;20.90;1.00
25933;DHT22;13731;51.166;4.474;2023-08-12T01:35:32;20.70;1.00
25933;DHT22;13731;51.166;4.474;2023-08-12T01:37:51;20.70;1.00
25933;DHT22;13731;51.166;4.474;2023-08-12T01:40:17;20.60;1.00
25933;DHT22;13731;51.166;4.474;2023-08-12T01:42:44;20.60;1.00
25933;DHT22;13731;51.166;4.474;2023-08-12T01:45:10;20.60;1.00
25933;DHT22;13731;51.166;4.474;2023-08-12T01:47:36;20.60;1.00
25933;DHT22;13731;51.166;4.474;2023-08-12T01:50:02;20.60;1.00
25933;DHT22;13731;51.166;4.474;2023-08-12T01:52:28;20.70;1.00
25933;DHT22;13731;51.166;4.474;2023-08-12T01:54:54;20.60;1.00
25933;DHT22;13731;51.166;4.474;2023-08-12T01:57:21;20.60;1.00
25933;DHT22;13731;51.166;4.474;2023-08-12T01:59:46;20.60;1.00
25933;DHT22;13731;51.166;4.474;2023-08-12T02:02:12;20.70;1.00
25933;DHT22;13731;51.166;4.474;2023-08-12T02:04:39;20.60;1.00
25933;DHT22;13731;51.166;4.474;2023-08-12T02:07:05;20.60;1.00
25933;DHT22;13731;51.166;4.474;2023-08-12T02:09:30;20.60;1.00
25933;DHT22;13731;51.166;4.474;2023-08-12T02:11:56;20.40;1.00
25933;DHT22;13731;51.166;4.474;2023-08-12T02:14:22;20.40;1.00
25933;DHT22;13731;51.166;4.474;2023-08-12T02:16:48;20.30;69.90
25933;DHT22;13731;51.166;4.474;2023-08-12T02:19:14;20.20;99.90
25933;DHT22;13731;51.166;4.474;2023-08-12T02:21:41;20.30;96.00
25933;DHT22;13731;51.166;4.474;2023-08-12T02:24:07;20.30;95.10
25933;DHT22;13731;51.166;4.474;2023-08-12T02:26:32;20.20;99.90
25933;DHT22;13731;51.166;4.474;2023-08-12T02:28:58;20.30;99.90
25933;DHT22;13731;51.166;4.474;2023-08-12T02:31:24;20.30;99.90
25933;DHT22;13731;51.166;4.474;2023-08-12T02:33:50;20.30;99.90
25933;DHT22;13731;51.166;4.474;2023-08-12T02:36:16;20.40;36.40
25933;DHT22;13731;51.166;4.474;2023-08-12T02:38:41;20.30;59.30
25933;DHT22;13731;51.166;4.474;2023-08-12T02:41:08;20.40;58.80
25933;DHT22;13731;51.166;4.474;2023-08-12T02:43:34;20.40;30.30
25933;DHT22;13731;51.166;4.474;2023-08-12T02:46:02;20.40;18.90
25933;DHT22;13731;51.166;4.474;2023-08-12T02:48:27;20.40;56.20
25933;DHT22;13731;51.166;4.474;2023-08-12T02:50:53;20.40;29.90
25933;DHT22;13731;51.166;4.474;2023-08-12T02:53:19;20.50;1.00
25933;DHT22;13731;51.166;4.474;2023-08-12T02:55:45;20.50;1.00
25933;DHT22;13731;51.166;4.474;2023-08-12T02:58:11;20.50;1.00
25933;DHT22;13731;51.166;4.474;2023-08-12T03:00:37;20.50;1.00
25933;DHT22;13731;51.166;4.474;2023-08-12T03:03:03;20.60;1.00
25933;DHT22;13731;51.166;4.474;2023-08-12T03:05:30;20.60;1.00
25933;DHT22;13731;51.166;4.474;2023-08-12T03:07:56;20.60;1.00
25933;DHT22;13731;51.166;4.474;2023-08-12T03:10:23;20.60;1.00
25933;DHT22;13731;51.166;4.474;2023-08-12T03:12:48;20.70;1.00
25933;DHT22;13731;51.166;4.474;2023-08-12T03:15:15;20.60;1.00
25933;DHT22;13731;51.166;4.474;2023-08-12T03:17:42;20.50;16.60
25933;DHT22;13731;51.166;4.474;2023-08-12T03:20:08;20.60;1.00
25933;DHT22;13731;51.166;4.474;2023-08-12T03:22:36;20.50;1.00
25933;DHT22;13731;51.166;4.474;2023-08-12T03:25:03;20.50;1.00
25933;DHT22;13731;51.166;4.474;2023-08-12T03:27:29;20.40;72.50
25933;DHT22;13731;51.166;4.474;2023-08-12T03:29:55;20.40;90.10
25933;DHT22;13731;51.166;4.474;2023-08-12T03:32:20;20.50;36.70
25933;DHT22;13731;51.166;4.474;2023-08-12T03:34:47;20.40;79.10
25933;DHT22;13731;51.166;4.474;2023-08-12T03:37:13;20.40;99.90
25933;DHT22;13731;51.166;4.474;2023-08-12T03:39:41;20.40;99.90
25933;DHT22;13731;51.166;4.474;2023-08-12T03:42:06;20.40;99.90
25933;DHT22;13731;51.166;4.474;2023-08-12T03:44:33;20.30;99.90
25933;DHT22;13731;51.166;4.474;2023-08-12T03:46:59;20.10;99.90
25933;DHT22;13731;51.166;4.474;2023-08-12T03:49:26;20.10;99.90
25933;DHT22;13731;51.166;4.474;2023-08-12T03:51:52;20.10;99.90
25933;DHT22;13731;51.166;4.474;2023-08-12T03:54:17;20.00;99.90
25933;DHT22;13731;51.166;4.474;2023-08-12T03:56:43;20.00;99.90
25933;DHT22;13731;51.166;4.474;2023-08-12T03:59:09;19.90;99.90
25933;DHT22;13731;51.166;4.474;2023-08-12T04:01:36;19.80;99.90
25933;DHT22;13731;51.166;4.474;2023-08-12T04:04:02;19.80;99.90
25933;DHT22;13731;51.166;4.474;2023-08-12T04:06:28;19.80;99.90
25933;DHT22;13731;51.166;4.474;2023-08-12T04:08:53;19.90;99.90
25933;DHT22;13731;51.166;4.474;2023-08-12T04:11:19;19.70;99.90
25933;DHT22;13731;51.166;4.474;2023-08-12T04:13:45;19.70;99.90
25933;DHT22;13731;51.166;4.474;2023-08-12T04:16:12;19.70;99.90
25933;DHT22;13731;51.166;4.474;2023-08-12T04:18:37;19.60;99.90
25933;DHT22;13731;51.166;4.474;2023-08-12T04:21:03;19.60;99.90
25933;DHT22;13731;51.166;4.474;2023-08-12T04:23:29;19.50;99.90
25933;DHT22;13731;51.166;4.474;2023-08-12T04:25:55;19.50;99.90
25933;DHT22;13731;51.166;4.474;2023-08-12T04:28:24;19.50;99.90
25933;DHT22;13731;51.166;4.474;2023-08-12T04:30:51;19.50;99.90
25933;DHT22;13731;51.166;4.474;2023-08-12T04:33:21;19.50;99.90
25933;DHT22;13731;51.166;4.474;2023-08-12T04:35:47;19.40;99.90
25933;DHT22;13731;51.166;4.474;2023-08-12T04:38:15;19.40;99.90
25933;DHT22;13731;51.166;4.474;2023-08-12T04:40:42;19.40;99.90
25933;DHT22;13731;51.166;4.474;2023-08-12T04:43:08;19.40;99.90
25933;DHT22;13731;51.166;4.474;2023-08-12T04:45:34;19.50;99.90
25933;DHT22;13731;51.166;4.474;2023-08-12T04:48:01;19.50;99.90
25933;DHT22;13731;51.166;4.474;2023-08-12T04:50:30;19.50;99.90
25933;DHT22;13731;51.166;4.474;2023-08-12T04:52:56;19.60;99.90
25933;DHT22;13731;51.166;4.474;2023-08-12T04:55:24;19.60;99.90
25933;DHT22;13731;51.166;4.474;2023-08-12T04:57:51;19.60;99.90
25933;DHT22;13731;51.166;4.474;2023-08-12T05:00:16;19.70;99.90
25933;DHT22;13731;51.166;4.474;2023-08-12T05:02:43;19.60;99.90
25933;DHT22;13731;51.166;4.474;2023-08-12T05:05:09;19.70;99.90
25933;DHT22;13731;51.166;4.474;2023-08-12T05:07:36;19.60;99.90
25933;DHT22;13731;51.166;4.474;2023-08-12T05:10:02;19.60;99.90
25933;DHT22;13731;51.166;4.474;2023-08-12T05:12:30;19.60;99.90
25933;DHT22;13731;51.166;4.474;2023-08-12T05:14:56;19.50;99.90
25933;DHT22;13731;51.166;4.474;2023-08-12T05:17:21;19.60;99.90
25933;DHT22;13731;51.166;4.474;2023-08-12T05:19:47;19.60;99.90
25933;DHT22;13731;51.166;4.474;2023-08-12T05:22:13;19.60;99.90
25933;DHT22;13731;51.166;4.474;2023-08-12T05:24:39;19.60;99.90
25933;DHT22;13731;51.166;4.474;2023-08-12T05:27:04;19.60;99.90
25933;DHT22;13731;51.166;4.474;2023-08-12T05:29:30;19.60;99.90
25933;DHT22;13731;51.166;4.474;2023-08-12T05:31:56;19.60;99.90
25933;DHT22;13731;51.166;4.474;2023-08-12T05:34:22;19.60;99.90
25933;DHT22;13731;51.166;4.474;2023-08-12T05:36:47;19.60;99.90
25933;DHT22;13731;51.166;4.474;2023-08-12T05:39:13;19.60;99.90
25933;DHT22;13731;51.166;4.474;2023-08-12T05:41:40;19.60;99.90
25933;DHT22;13731;51.166;4.474;2023-08-12T05:44:06;19.60;99.90
25933;DHT22;13731;51.166;4.474;2023-08-12T05:46:32;19.60;99.90
25933;DHT22;13731;51.166;4.474;2023-08-12T05:48:58;19.60;99.90
25933;DHT22;13731;51.166;4.474;2023-08-12T05:51:24;19.70;99.90
25933;DHT22;13731;51.166;4.474;2023-08-12T05:53:50;19.80;99.90
25933;DHT22;13731;51.166;4.474;2023-08-12T05:56:15;19.80;99.90
25933;DHT22;13731;51.166;4.474;2023-08-12T05:58:41;19.90;99.90
25933;DHT22;13731;51.166;4.474;2023-08-12T06:01:07;19.90;99.90
25933;DHT22;13731;51.166;4.474;2023-08-12T06:03:32;19.90;99.90
25933;DHT22;13731;51.166;4.474;2023-08-12T06:05:58;20.00;99.90
25933;DHT22;13731;51.166;4.474;2023-08-12T06:08:24;20.00;99.90
25933;DHT22;13731;51.166;4.474;2023-08-12T06:10:50;20.00;99.90
25933;DHT22;13731;51.166;4.474;2023-08-12T06:13:15;20.00;99.90
25933;DHT22;13731;51.166;4.474;2023-08-12T06:15:41;20.00;99.90
25933;DHT22;13731;51.166;4.474;2023-08-12T06:18:07;20.00;99.90
25933;DHT22;13731;51.166;4.474;2023-08-12T06:20:32;20.00;99.90
25933;DHT22;13731;51.166;4.474;2023-08-12T06:22:58;20.10;99.90
25933;DHT22;13731;51.166;4.474;2023-08-12T06:25:24;20.00;99.90
25933;DHT22;13731;51.166;4.474;2023-08-12T06:27:50;20.10;99.90
25933;DHT22;13731;51.166;4.474;2023-08-12T06:30:15;20.00;99.90
25933;DHT22;13731;51.166;4.474;2023-08-12T06:32:41;20.10;99.90
25933;DHT22;13731;51.166;4.474;2023-08-12T06:35:07;20.10;99.90
25933;DHT22;13731;51.166;4.474;2023-08-12T06:37:33;20.10;99.90
25933;DHT22;13731;51.166;4.474;2023-08-12T06:39:59;20.10;99.90
25933;DHT22;13731;51.166;4.474;2023-08-12T06:42:25;20.10;99.90
25933;DHT22;13731;51.166;4.474;2023-08-12T06:44:54;20.20;99.90
25933;DHT22;13731;51.166;4.474;2023-08-12T06:47:20;20.20;99.90
25933;DHT22;13731;51.166;4.474;2023-08-12T06:49:46;20.20;99.90
25933;DHT22;13731;51.166;4.474;2023-08-12T06:52:12;20.10;99.90
25933;DHT22;13731;51.166;4.474;2023-08-12T06:54:38;20.00;99.90
25933;DHT22;13731;51.166;4.474;2023-08-12T06:57:03;19.90;99.90
25933;DHT22;13731;51.166;4.474;2023-08-12T06:59:29;19.90;99.90
25933;DHT22;13731;51.166;4.474;2023-08-12T07:01:55;20.00;99.90
25933;DHT22;13731;51.166;4.474;2023-08-12T07:04:21;20.00;99.90
25933;DHT22;13731;51.166;4.474;2023-08-12T07:06:46;20.10;99.90
25933;DHT22;13731;51.166;4.474;2023-08-12T07:09:12;20.20;99.90
25933;DHT22;13731;51.166;4.474;2023-08-12T07:11:38;20.20;99.90
25933;DHT22;13731;51.166;4.474;2023-08-12T07:14:04;20.00;99.90
25933;DHT22;13731;51.166;4.474;2023-08-12T07:16:30;20.20;99.90
25933;DHT22;13731;51.166;4.474;2023-08-12T07:18:56;20.20;99.90
25933;DHT22;13731;51.166;4.474;2023-08-12T07:21:22;20.20;99.90
25933;DHT22;13731;51.166;4.474;2023-08-12T07:23:47;20.20;99.90
25933;DHT22;13731;51.166;4.474;2023-08-12T07:26:13;20.00;99.90
25933;DHT22;13731;51.166;4.474;2023-08-12T07:28:39;20.10;99.90
25933;DHT22;13731;51.166;4.474;2023-08-12T07:31:05;20.00;99.90
25933;DHT22;13731;51.166;4.474;2023-08-12T07:33:31;19.90;99.90
25933;DHT22;13731;51.166;4.474;2023-08-12T07:35:58;20.00;99.90
25933;DHT22;13731;51.166;4.474;2023-08-12T07:38:24;19.90;99.90
25933;DHT22;13731;51.166;4.474;2023-08-12T07:40:50;19.80;99.90
25933;DHT22;13731;51.166;4.474;2023-08-12T07:43:16;19.70;99.90
25933;DHT22;13731;51.166;4.474;2023-08-12T07:45:42;19.60;99.90
25933;DHT22;13731;51.166;4.474;2023-08-12T07:48:07;19.80;99.90
25933;DHT22;13731;51.166;4.474;2023-08-12T07:50:33;19.80;99.90
25933;DHT22;13731;51.166;4.474;2023-08-12T07:52:59;19.80;99.90
25933;DHT22;13731;51.166;4.474;2023-08-12T07:55:24;19.60;99.90
25933;DHT22;13731;51.166;4.474;2023-08-12T07:57:50;19.50;99.90
25933;DHT22;13731;51.166;4.474;2023-08-12T08:00:16;19.60;99.90
25933;DHT22;13731;51.166;4.474;2023-08-12T08:02:42;19.70;99.90
25933;DHT22;13731;51.166;4.474;2023-08-12T08:05:07;19.80;99.90
25933;DHT22;13731;51.166;4.474;2023-08-12T08:07:33;20.00;99.90
25933;DHT22;13731;51.166;4.474;2023-08-12T08:09:59;20.30;99.90
25933;DHT22;13731;51.166;4.474;2023-08-12T08:12:25;20.10;99.90
25933;DHT22;13731;51.166;4.474;2023-08-12T08:14:50;20.00;99.90
25933;DHT22;13731;51.166;4.474;2023-08-12T08:17:16;20.00;99.90
25933;DHT22;13731;51.166;4.474;2023-08-12T08:19:42;19.90;99.90
25933;DHT22;13731;51.166;4.474;2023-08-12T08:22:08;19.80;99.90
25933;DHT22;13731;51.166;4.474;2023-08-12T08:24:33;19.90;99.90
25933;DHT22;13731;51.166;4.474;2023-08-12T08:26:59;20.00;99.90
25933;DHT22;13731;51.166;4.474;2023-08-12T08:29:25;20.30;99.90
25933;DHT22;13731;51.166;4.474;2023-08-12T08:31:50;20.40;99.90
25933;DHT22;13731;51.166;4.474;2023-08-12T08:34:16;20.60;99.90
25933;DHT22;13731;51.166;4.474;2023-08-12T08:36:42;20.50;99.90
25933;DHT22;13731;51.166;4.474;2023-08-12T08:39:08;20.80;99.90
25933;DHT22;13731;51.166;4.474;2023-08-12T08:41:38;20.90;1.50
25933;DHT22;13731;51.166;4.474;2023-08-12T08:44:05;20.90;99.90
25933;DHT22;13731;51.166;4.474;2023-08-12T08:46:32;20.70;99.90
25933;DHT22;13731;51.166;4.474;2023-08-12T08:48:58;20.50;99.90
25933;DHT22;13731;51.166;4.474;2023-08-12T08:51:24;20.40;99.90
25933;DHT22;13731;51.166;4.474;2023-08-12T08:53:50;20.40;99.90
25933;DHT22;13731;51.166;4.474;2023-08-12T08:56:18;20.80;1.00
25933;DHT22;13731;51.166;4.474;2023-08-12T08:58:43;21.20;99.90
25933;DHT22;13731;51.166;4.474;2023-08-12T09:01:09;21.50;1.00
25933;DHT22;13731;51.166;4.474;2023-08-12T09:03:37;21.60;1.00
25933;DHT22;13731;51.166;4.474;2023-08-12T09:06:03;22.00;99.90
25933;DHT22;13731;51.166;4.474;2023-08-12T09:08:31;22.20;1.00
25933;DHT22;13731;51.166;4.474;2023-08-12T09:10:57;22.10;15.00
25933;DHT22;13731;51.166;4.474;2023-08-12T09:13:24;22.00;68.50
25933;DHT22;13731;51.166;4.474;2023-08-12T09:15:50;21.60;1.00
25933;DHT22;13731;51.166;4.474;2023-08-12T09:18:16;21.70;1.00
25933;DHT22;13731;51.166;4.474;2023-08-12T09:20:41;21.90;99.90
25933;DHT22;13731;51.166;4.474;2023-08-12T09:23:09;22.40;99.90
25933;DHT22;13731;51.166;4.474;2023-08-12T09:25:42;22.10;99.90
25933;DHT22;13731;51.166;4.474;2023-08-12T09:28:11;22.70;99.90
25933;DHT22;13731;51.166;4.474;2023-08-12T09:30:37;23.10;15.90
25933;DHT22;13731;51.166;4.474;2023-08-12T09:33:04;23.50;1.00
25933;DHT22;13731;51.166;4.474;2023-08-12T09:35:36;24.20;1.00
25933;DHT22;13731;51.166;4.474;2023-08-12T09:38:02;24.50;1.00
25933;DHT22;13731;51.166;4.474;2023-08-12T09:40:32;24.40;1.00
25933;DHT22;13731;51.166;4.474;2023-08-12T09:42:58;24.20;1.00
25933;DHT22;13731;51.166;4.474;2023-08-12T09:45:25;23.80;1.00
25933;DHT22;13731;51.166;4.474;2023-08-12T09:47:51;23.30;1.00
25933;DHT22;13731;51.166;4.474;2023-08-12T09:50:17;23.70;1.00
25933;DHT22;13731;51.166;4.474;2023-08-12T09:52:43;24.10;1.00
25933;DHT22;13731;51.166;4.474;2023-08-12T09:55:09;24.60;1.00
25933;DHT22;13731;51.166;4.474;2023-08-12T09:57:36;24.50;1.00
25933;DHT22;13731;51.166;4.474;2023-08-12T10:00:06;24.40;1.00
25933;DHT22;13731;51.166;4.474;2023-08-12T10:02:38;24.40;99.90
25933;DHT22;13731;51.166;4.474;2023-08-12T10:05:04;23.90;1.00
25933;DHT22;13731;51.166;4.474;2023-08-12T10:07:30;23.60;1.00
25933;DHT22;13731;51.166;4.474;2023-08-12T10:09:56;23.70;1.00
25933;DHT22;13731;51.166;4.474;2023-08-12T10:12:22;23.80;1.00
25933;DHT22;13731;51.166;4.474;2023-08-12T10:14:48;23.90;99.90
25933;DHT22;13731;51.166;4.474;2023-08-12T10:17:14;23.90;99.90
25933;DHT22;13731;51.166;4.474;2023-08-12T10:19:43;24.60;99.90
25933;DHT22;13731;51.166;4.474;2023-08-12T10:22:09;25.60;99.90
25933;DHT22;13731;51.166;4.474;2023-08-12T10:24:35;25.20;99.90
25933;DHT22;13731;51.166;4.474;2023-08-12T10:27:02;25.60;99.90
25933;DHT22;13731;51.166;4.474;2023-08-12T10:29:29;26.30;99.90
25933;DHT22;13731;51.166;4.474;2023-08-12T10:31:56;26.40;99.90
25933;DHT22;13731;51.166;4.474;2023-08-12T10:34:23;25.70;99.90
25933;DHT22;13731;51.166;4.474;2023-08-12T10:37:02;26.40;99.90
25933;DHT22;13731;51.166;4.474;2023-08-12T10:39:28;26.30;99.90
25933;DHT22;13731;51.166;4.474;2023-08-12T10:41:54;26.30;99.90
25933;DHT22;13731;51.166;4.474;2023-08-12T10:44:21;26.30;99.90
25933;DHT22;13731;51.166;4.474;2023-08-12T10:46:51;26.30;99.90
25933;DHT22;13731;51.166;4.474;2023-08-12T10:49:18;26.40;99.90
25933;DHT22;13731;51.166;4.474;2023-08-12T10:51:51;26.60;99.90
25933;DHT22;13731;51.166;4.474;2023-08-12T11:02:28;26.00;99.90
25933;DHT22;13731;51.166;4.474;2023-08-12T11:05:00;28.30;99.90
25933;DHT22;13731;51.166;4.474;2023-08-12T11:10:21;28.40;74.20
25933;DHT22;13731;51.166;4.474;2023-08-12T11:12:48;28.10;68.50
25933;DHT22;13731;51.166;4.474;2023-08-12T11:15:14;28.30;78.90
25933;DHT22;13731;51.166;4.474;2023-08-12T11:17:40;28.80;58.70
25933;DHT22;13731;51.166;4.474;2023-08-12T11:20:10;29.50;50.20
25933;DHT22;13731;51.166;4.474;2023-08-12T11:22:37;29.60;44.60
25933;DHT22;13731;51.166;4.474;2023-08-12T11:25:04;29.50;26.10
25933;DHT22;13731;51.166;4.474;2023-08-12T11:27:37;29.50;16.10
25933;DHT22;13731;51.166;4.474;2023-08-12T11:30:03;29.50;12.70
25933;DHT22;13731;51.166;4.474;2023-08-12T11:32:30;30.40;8.30
25933;DHT22;13731;51.166;4.474;2023-08-12T11:34:55;31.40;1.00
25933;DHT22;13731;51.166;4.474;2023-08-12T11:37:21;31.50;1.00
25933;DHT22;13731;51.166;4.474;2023-08-12T11:39:47;32.30;1.00
25933;DHT22;13731;51.166;4.474;2023-08-12T11:42:13;32.80;1.00
25933;DHT22;13731;51.166;4.474;2023-08-12T11:44:41;33.40;1.00
25933;DHT22;13731;51.166;4.474;2023-08-12T11:47:07;32.80;1.00
25933;DHT22;13731;51.166;4.474;2023-08-12T11:49:33;32.20;1.00
25933;DHT22;13731;51.166;4.474;2023-08-12T11:51:59;32.10;1.00
25933;DHT22;13731;51.166;4.474;2023-08-12T11:54:24;32.20;1.00
25933;DHT22;13731;51.166;4.474;2023-08-12T11:56:51;33.10;1.00
25933;DHT22;13731;51.166;4.474;2023-08-12T11:59:17;33.40;1.00
25933;DHT22;13731;51.166;4.474;2023-08-12T12:01:46;32.30;1.00
25933;DHT22;13731;51.166;4.474;2023-08-12T12:04:14;32.60;1.00
25933;DHT22;13731;51.166;4.474;2023-08-12T12:06:41;33.10;1.00
25933;DHT22;13731;51.166;4.474;2023-08-12T12:09:07;32.60;1.00
25933;DHT22;13731;51.166;4.474;2023-08-12T12:11:35;32.10;1.00
25933;DHT22;13731;51.166;4.474;2023-08-12T12:14:02;31.80;1.00
25933;DHT22;13731;51.166;4.474;2023-08-12T12:16:39;32.00;1.00
25933;DHT22;13731;51.166;4.474;2023-08-12T12:19:16;30.90;1.00
25933;DHT22;13731;51.166;4.474;2023-08-12T12:21:42;29.80;1.00
25933;DHT22;13731;51.166;4.474;2023-08-12T12:24:13;30.40;1.00
25933;DHT22;13731;51.166;4.474;2023-08-12T12:26:39;31.20;1.00
25933;DHT22;13731;51.166;4.474;2023-08-12T12:29:05;31.10;1.00
25933;DHT22;13731;51.166;4.474;2023-08-12T12:31:35;30.60;1.00
25933;DHT22;13731;51.166;4.474;2023-08-12T12:34:02;30.80;1.00
25933;DHT22;13731;51.166;4.474;2023-08-12T12:36:29;30.50;1.00
25933;DHT22;13731;51.166;4.474;2023-08-12T12:38:55;30.30;1.00
25933;DHT22;13731;51.166;4.474;2023-08-12T12:41:21;30.90;1.00
25933;DHT22;13731;51.166;4.474;2023-08-12T12:43:46;30.90;1.00
25933;DHT22;13731;51.166;4.474;2023-08-12T12:46:12;31.20;1.00
25933;DHT22;13731;51.166;4.474;2023-08-12T12:48:38;31.00;1.00
25933;DHT22;13731;51.166;4.474;2023-08-12T12:51:04;30.50;1.00
25933;DHT22;13731;51.166;4.474;2023-08-12T12:53:29;30.50;1.00
25933;DHT22;13731;51.166;4.474;2023-08-12T12:55:55;31.60;1.00
25933;DHT22;13731;51.166;4.474;2023-08-12T12:58:23;32.40;1.00
25933;DHT22;13731;51.166;4.474;2023-08-12T13:00:49;33.10;1.00
25933;DHT22;13731;51.166;4.474;2023-08-12T13:03:15;34.20;1.00
25933;DHT22;13731;51.166;4.474;2023-08-12T13:05:40;34.50;1.00
25933;DHT22;13731;51.166;4.474;2023-08-12T13:08:06;35.00;1.00
25933;DHT22;13731;51.166;4.474;2023-08-12T13:10:32;34.60;1.00
25933;DHT22;13731;51.166;4.474;2023-08-12T13:12:57;34.90;1.00
25933;DHT22;13731;51.166;4.474;2023-08-12T13:15:23;33.30;1.00
25933;DHT22;13731;51.166;4.474;2023-08-12T13:17:52;33.20;1.00
25933;DHT22;13731;51.166;4.474;2023-08-12T13:20:18;31.90;1.00
25933;DHT22;13731;51.166;4.474;2023-08-12T13:22:43;31.20;1.00
25933;DHT22;13731;51.166;4.474;2023-08-12T13:25:09;32.10;1.00
25933;DHT22;13731;51.166;4.474;2023-08-12T13:27:35;31.10;1.00
25933;DHT22;13731;51.166;4.474;2023-08-12T13:30:00;30.60;1.00
25933;DHT22;13731;51.166;4.474;2023-08-12T13:32:26;29.60;1.00
25933;DHT22;13731;51.166;4.474;2023-08-12T13:34:52;28.60;1.00
25933;DHT22;13731;51.166;4.474;2023-08-12T13:37:18;27.80;1.00
25933;DHT22;13731;51.166;4.474;2023-08-12T13:39:44;27.30;1.00
25933;DHT22;13731;51.166;4.474;2023-08-12T13:42:09;27.40;1.00
25933;DHT22;13731;51.166;4.474;2023-08-12T13:44:35;27.80;1.00
25933;DHT22;13731;51.166;4.474;2023-08-12T13:47:01;27.70;1.00
25933;DHT22;13731;51.166;4.474;2023-08-12T13:49:27;27.60;1.00
25933;DHT22;13731;51.166;4.474;2023-08-12T13:51:52;27.20;1.00
25933;DHT22;13731;51.166;4.474;2023-08-12T13:54:18;26.80;1.00
25933;DHT22;13731;51.166;4.474;2023-08-12T13:56:44;26.60;1.00
25933;DHT22;13731;51.166;4.474;2023-08-12T13:59:10;26.70;1.00
25933;DHT22;13731;51.166;4.474;2023-08-12T14:01:36;28.80;1.00
25933;DHT22;13731;51.166;4.474;2023-08-12T14:04:02;30.10;1.00
25933;DHT22;13731;51.166;4.474;2023-08-12T14:06:27;31.40;1.00
25933;DHT22;13731;51.166;4.474;2023-08-12T14:08:53;31.40;1.00
25933;DHT22;13731;51.166;4.474;2023-08-12T14:11:19;31.90;1.00
25933;DHT22;13731;51.166;4.474;2023-08-12T14:13:46;31.80;1.00
25933;DHT22;13731;51.166;4.474;2023-08-12T14:16:11;31.90;1.00
25933;DHT22;13731;51.166;4.474;2023-08-12T14:18:37;31.70;1.00
25933;DHT22;13731;51.166;4.474;2023-08-12T14:21:03;32.10;1.00
25933;DHT22;13731;51.166;4.474;2023-08-12T14:23:29;32.70;1.00
25933;DHT22;13731;51.166;4.474;2023-08-12T14:25:55;33.30;1.00
25933;DHT22;13731;51.166;4.474;2023-08-12T14:28:20;33.50;1.00
25933;DHT22;13731;51.166;4.474;2023-08-12T14:30:46;34.40;1.00
25933;DHT22;13731;51.166;4.474;2023-08-12T14:33:12;32.90;1.00
25933;DHT22;13731;51.166;4.474;2023-08-12T14:35:38;30.50;1.00
25933;DHT22;13731;51.166;4.474;2023-08-12T14:38:03;29.70;1.00
25933;DHT22;13731;51.166;4.474;2023-08-12T14:40:29;30.10;1.00
25933;DHT22;13731;51.166;4.474;2023-08-12T14:42:55;30.80;1.00
25933;DHT22;13731;51.166;4.474;2023-08-12T14:45:21;32.00;1.00
25933;DHT22;13731;51.166;4.474;2023-08-12T14:47:46;32.80;1.00
25933;DHT22;13731;51.166;4.474;2023-08-12T14:50:12;32.40;1.00
25933;DHT22;13731;51.166;4.474;2023-08-12T14:52:38;32.60;1.00
25933;DHT22;13731;51.166;4.474;2023-08-12T14:55:03;33.10;1.00
25933;DHT22;13731;51.166;4.474;2023-08-12T14:57:29;33.30;1.00
25933;DHT22;13731;51.166;4.474;2023-08-12T14:59:55;33.10;1.00
25933;DHT22;13731;51.166;4.474;2023-08-12T15:02:21;33.40;1.00
25933;DHT22;13731;51.166;4.474;2023-08-12T15:04:48;34.10;1.00
25933;DHT22;13731;51.166;4.474;2023-08-12T15:07:14;33.40;1.00
25933;DHT22;13731;51.166;4.474;2023-08-12T15:09:41;32.10;1.00
25933;DHT22;13731;51.166;4.474;2023-08-12T15:12:07;32.20;1.00
25933;DHT22;13731;51.166;4.474;2023-08-12T15:14:33;32.70;1.00
25933;DHT22;13731;51.166;4.474;2023-08-12T15:16:59;32.80;1.00
25933;DHT22;13731;51.166;4.474;2023-08-12T15:19:25;32.60;1.00
25933;DHT22;13731;51.166;4.474;2023-08-12T15:21:50;32.80;1.00
25933;DHT22;13731;51.166;4.474;2023-08-12T15:24:16;31.20;1.00
25933;DHT22;13731;51.166;4.474;2023-08-12T15:26:42;29.90;1.00
25933;DHT22;13731;51.166;4.474;2023-08-12T15:29:08;28.90;1.00
25933;DHT22;13731;51.166;4.474;2023-08-12T15:31:34;29.90;1.00
25933;DHT22;13731;51.166;4.474;2023-08-12T15:34:01;31.20;1.00
25933;DHT22;13731;51.166;4.474;2023-08-12T15:36:27;31.20;1.00
25933;DHT22;13731;51.166;4.474;2023-08-12T15:38:52;31.80;1.00
25933;DHT22;13731;51.166;4.474;2023-08-12T15:41:18;32.90;1.00
25933;DHT22;13731;51.166;4.474;2023-08-12T15:43:45;33.00;1.00
25933;DHT22;13731;51.166;4.474;2023-08-12T15:46:11;33.10;1.00